sensor_id;sensor_type;location;lat;lon;timestamp;P1;durP1;ratioP1;P2;durP2;ratioP2
84031;SDS011;74113;46.556;24.570;2024-02-15T00:02:09;3.00;;;1.20;;
84031;SDS011;74113;46.556;24.570;2024-02-15T00:04:38;2.30;;;0.80;;
84031;SDS011;74113;46.556;24.570;2024-02-15T00:07:06;3.00;;;1.60;;
84031;SDS011;74113;46.556;24.570;2024-02-15T00:09:36;3.10;;;1.30;;
84031;SDS011;74113;46.556;24.570;2024-02-15T00:12:05;3.00;;;2.10;;
84031;SDS011;74113;46.556;24.570;2024-02-15T00:14:34;3.20;;;1.00;;
84031;SDS011;74113;46.556;24.570;2024-02-15T00:17:03;2.30;;;1.10;;
84031;SDS011;74113;46.556;24.570;2024-02-15T00:19:33;3.70;;;0.80;;
84031;SDS011;74113;46.556;24.570;2024-02-15T00:22:02;2.40;;;1.60;;
84031;SDS011;74113;46.556;24.570;2024-02-15T00:24:30;2.20;;;1.30;;
84031;SDS011;74113;46.556;24.570;2024-02-15T00:26:59;2.30;;;1.50;;
84031;SDS011;74113;46.556;24.570;2024-02-15T00:29:28;3.20;;;1.60;;
84031;SDS011;74113;46.556;24.570;2024-02-15T00:31:57;2.70;;;0.90;;
84031;SDS011;74113;46.556;24.570;2024-02-15T00:34:26;2.10;;;1.20;;
84031;SDS011;74113;46.556;24.570;2024-02-15T00:36:56;1.90;;;0.80;;
84031;SDS011;74113;46.556;24.570;2024-02-15T00:39:24;2.40;;;1.50;;
84031;SDS011;74113;46.556;24.570;2024-02-15T00:41:53;2.60;;;0.80;;
84031;SDS011;74113;46.556;24.570;2024-02-15T00:44:24;2.10;;;0.80;;
84031;SDS011;74113;46.556;24.570;2024-02-15T00:46:53;2.50;;;1.10;;
84031;SDS011;74113;46.556;24.570;2024-02-15T00:49:22;2.30;;;0.90;;
84031;SDS011;74113;46.556;24.570;2024-02-15T00:51:52;2.10;;;1.20;;
84031;SDS011;74113;46.556;24.570;2024-02-15T00:54:21;2.50;;;0.70;;
84031;SDS011;74113;46.556;24.570;2024-02-15T00:56:51;2.70;;;1.50;;
84031;SDS011;74113;46.556;24.570;2024-02-15T00:59:20;2.30;;;0.60;;
84031;SDS011;74113;46.556;24.570;2024-02-15T01:01:48;3.20;;;2.70;;
84031;SDS011;74113;46.556;24.570;2024-02-15T01:04:17;2.70;;;1.20;;
84031;SDS011;74113;46.556;24.570;2024-02-15T01:06:45;4.40;;;0.90;;
84031;SDS011;74113;46.556;24.570;2024-02-15T01:09:14;5.50;;;2.60;;
84031;SDS011;74113;46.556;24.570;2024-02-15T01:11:43;3.60;;;1.30;;
84031;SDS011;74113;46.556;24.570;2024-02-15T01:14:12;2.90;;;1.00;;
84031;SDS011;74113;46.556;24.570;2024-02-15T01:16:42;1.90;;;0.60;;
84031;SDS011;74113;46.556;24.570;2024-02-15T01:19:11;2.80;;;0.90;;
84031;SDS011;74113;46.556;24.570;2024-02-15T01:21:41;3.40;;;2.10;;
84031;SDS011;74113;46.556;24.570;2024-02-15T01:24:11;2.20;;;1.70;;
84031;SDS011;74113;46.556;24.570;2024-02-15T01:26:40;1.90;;;0.90;;
84031;SDS011;74113;46.556;24.570;2024-02-15T01:29:09;2.40;;;1.40;;
84031;SDS011;74113;46.556;24.570;2024-02-15T01:31:40;3.80;;;1.50;;
84031;SDS011;74113;46.556;24.570;2024-02-15T01:34:09;3.10;;;1.30;;
84031;SDS011;74113;46.556;24.570;2024-02-15T01:36:38;3.60;;;0.90;;
84031;SDS011;74113;46.556;24.570;2024-02-15T01:39:07;4.10;;;0.90;;
84031;SDS011;74113;46.556;24.570;2024-02-15T01:41:36;3.80;;;1.30;;
84031;SDS011;74113;46.556;24.570;2024-02-15T01:44:06;5.60;;;2.80;;
84031;SDS011;74113;46.556;24.570;2024-02-15T01:46:35;4.20;;;2.30;;
84031;SDS011;74113;46.556;24.570;2024-02-15T01:49:04;6.00;;;4.70;;
84031;SDS011;74113;46.556;24.570;2024-02-15T01:51:36;4.90;;;2.90;;
84031;SDS011;74113;46.556;24.570;2024-02-15T01:54:05;4.40;;;2.00;;
84031;SDS011;74113;46.556;24.570;2024-02-15T01:56:34;4.60;;;2.30;;
84031;SDS011;74113;46.556;24.570;2024-02-15T01:59:05;4.40;;;1.40;;
84031;SDS011;74113;46.556;24.570;2024-02-15T02:01:34;2.80;;;0.80;;
84031;SDS011;74113;46.556;24.570;2024-02-15T02:04:03;4.00;;;1.20;;
84031;SDS011;74113;46.556;24.570;2024-02-15T02:06:32;3.00;;;1.60;;
84031;SDS011;74113;46.556;24.570;2024-02-15T02:09:01;2.30;;;1.20;;
84031;SDS011;74113;46.556;24.570;2024-02-15T02:11:30;2.70;;;1.10;;
84031;SDS011;74113;46.556;24.570;2024-02-15T02:13:59;2.20;;;0.70;;
84031;SDS011;74113;46.556;24.570;2024-02-15T02:16:28;1.70;;;0.80;;
84031;SDS011;74113;46.556;24.570;2024-02-15T02:19:04;2.20;;;0.80;;
84031;SDS011;74113;46.556;24.570;2024-02-15T02:21:38;2.10;;;0.60;;
84031;SDS011;74113;46.556;24.570;2024-02-15T02:24:20;2.10;;;1.30;;
84031;SDS011;74113;46.556;24.570;2024-02-15T02:26:50;2.50;;;1.00;;
84031;SDS011;74113;46.556;24.570;2024-02-15T02:29:21;2.50;;;1.10;;
84031;SDS011;74113;46.556;24.570;2024-02-15T02:31:50;2.30;;;0.90;;
84031;SDS011;74113;46.556;24.570;2024-02-15T02:34:19;2.60;;;0.80;;
84031;SDS011;74113;46.556;24.570;2024-02-15T02:36:48;2.60;;;1.70;;
84031;SDS011;74113;46.556;24.570;2024-02-15T02:39:18;1.90;;;0.60;;
84031;SDS011;74113;46.556;24.570;2024-02-15T02:41:47;2.20;;;0.90;;
84031;SDS011;74113;46.556;24.570;2024-02-15T02:44:16;3.60;;;1.90;;
84031;SDS011;74113;46.556;24.570;2024-02-15T02:46:44;2.50;;;1.20;;
84031;SDS011;74113;46.556;24.570;2024-02-15T02:49:13;2.40;;;1.20;;
84031;SDS011;74113;46.556;24.570;2024-02-15T02:51:43;2.40;;;0.60;;
84031;SDS011;74113;46.556;24.570;2024-02-15T02:54:12;2.10;;;1.70;;
84031;SDS011;74113;46.556;24.570;2024-02-15T02:56:43;2.40;;;0.90;;
84031;SDS011;74113;46.556;24.570;2024-02-15T02:59:13;3.30;;;1.40;;
84031;SDS011;74113;46.556;24.570;2024-02-15T03:01:44;2.20;;;1.40;;
84031;SDS011;74113;46.556;24.570;2024-02-15T03:06:45;2.60;;;1.10;;
84031;SDS011;74113;46.556;24.570;2024-02-15T03:09:15;3.70;;;1.20;;
84031;SDS011;74113;46.556;24.570;2024-02-15T03:11:44;2.30;;;0.70;;
84031;SDS011;74113;46.556;24.570;2024-02-15T03:14:12;2.50;;;0.60;;
84031;SDS011;74113;46.556;24.570;2024-02-15T03:16:42;1.60;;;0.50;;
84031;SDS011;74113;46.556;24.570;2024-02-15T03:19:11;2.40;;;0.80;;
84031;SDS011;74113;46.556;24.570;2024-02-15T03:21:40;3.00;;;0.90;;
84031;SDS011;74113;46.556;24.570;2024-02-15T03:24:14;4.70;;;2.00;;
84031;SDS011;74113;46.556;24.570;2024-02-15T03:26:43;4.30;;;1.00;;
84031;SDS011;74113;46.556;24.570;2024-02-15T03:29:12;3.30;;;1.50;;
84031;SDS011;74113;46.556;24.570;2024-02-15T03:31:41;4.10;;;0.80;;
84031;SDS011;74113;46.556;24.570;2024-02-15T03:34:10;1.90;;;0.80;;
84031;SDS011;74113;46.556;24.570;2024-02-15T03:36:40;2.20;;;0.60;;
84031;SDS011;74113;46.556;24.570;2024-02-15T03:39:08;3.80;;;1.70;;
84031;SDS011;74113;46.556;24.570;2024-02-15T03:41:37;4.80;;;1.80;;
84031;SDS011;74113;46.556;24.570;2024-02-15T03:44:07;3.30;;;1.80;;
84031;SDS011;74113;46.556;24.570;2024-02-15T03:46:37;3.00;;;1.00;;
84031;SDS011;74113;46.556;24.570;2024-02-15T03:49:06;3.80;;;1.00;;
84031;SDS011;74113;46.556;24.570;2024-02-15T03:51:36;4.00;;;1.60;;
84031;SDS011;74113;46.556;24.570;2024-02-15T03:56:33;3.60;;;1.80;;
84031;SDS011;74113;46.556;24.570;2024-02-15T03:59:01;7.00;;;2.30;;
84031;SDS011;74113;46.556;24.570;2024-02-15T04:01:32;4.20;;;1.40;;
84031;SDS011;74113;46.556;24.570;2024-02-15T04:04:02;4.20;;;1.30;;
84031;SDS011;74113;46.556;24.570;2024-02-15T04:06:31;2.60;;;0.60;;
84031;SDS011;74113;46.556;24.570;2024-02-15T04:09:02;4.10;;;1.10;;
84031;SDS011;74113;46.556;24.570;2024-02-15T04:11:30;5.40;;;1.70;;
84031;SDS011;74113;46.556;24.570;2024-02-15T04:13:59;3.80;;;2.70;;
84031;SDS011;74113;46.556;24.570;2024-02-15T04:16:28;2.90;;;0.90;;
84031;SDS011;74113;46.556;24.570;2024-02-15T04:19:02;2.50;;;0.80;;
84031;SDS011;74113;46.556;24.570;2024-02-15T04:21:31;3.90;;;2.20;;
84031;SDS011;74113;46.556;24.570;2024-02-15T04:24:00;3.40;;;1.40;;
84031;SDS011;74113;46.556;24.570;2024-02-15T04:26:29;2.70;;;0.70;;
84031;SDS011;74113;46.556;24.570;2024-02-15T04:28:58;2.50;;;0.70;;
84031;SDS011;74113;46.556;24.570;2024-02-15T04:31:27;2.30;;;1.20;;
84031;SDS011;74113;46.556;24.570;2024-02-15T04:33:58;4.70;;;1.70;;
84031;SDS011;74113;46.556;24.570;2024-02-15T04:36:28;3.00;;;0.90;;
84031;SDS011;74113;46.556;24.570;2024-02-15T04:39:01;2.80;;;1.00;;
84031;SDS011;74113;46.556;24.570;2024-02-15T04:41:33;2.80;;;1.30;;
84031;SDS011;74113;46.556;24.570;2024-02-15T04:44:03;4.70;;;1.20;;
84031;SDS011;74113;46.556;24.570;2024-02-15T04:46:32;3.20;;;2.90;;
84031;SDS011;74113;46.556;24.570;2024-02-15T04:49:02;3.60;;;1.40;;
84031;SDS011;74113;46.556;24.570;2024-02-15T04:51:31;3.10;;;1.40;;
84031;SDS011;74113;46.556;24.570;2024-02-15T04:54:00;4.50;;;2.20;;
84031;SDS011;74113;46.556;24.570;2024-02-15T04:56:30;2.80;;;1.30;;
84031;SDS011;74113;46.556;24.570;2024-02-15T04:59:01;3.10;;;1.60;;
84031;SDS011;74113;46.556;24.570;2024-02-15T05:01:35;2.70;;;0.70;;
84031;SDS011;74113;46.556;24.570;2024-02-15T05:04:04;2.70;;;2.00;;
84031;SDS011;74113;46.556;24.570;2024-02-15T05:06:35;2.00;;;0.90;;
84031;SDS011;74113;46.556;24.570;2024-02-15T05:09:05;4.30;;;1.40;;
84031;SDS011;74113;46.556;24.570;2024-02-15T05:11:41;2.60;;;1.20;;
84031;SDS011;74113;46.556;24.570;2024-02-15T05:14:13;3.30;;;1.40;;
84031;SDS011;74113;46.556;24.570;2024-02-15T05:16:47;4.00;;;1.00;;
84031;SDS011;74113;46.556;24.570;2024-02-15T05:19:17;2.70;;;1.20;;
84031;SDS011;74113;46.556;24.570;2024-02-15T05:21:48;2.20;;;0.70;;
84031;SDS011;74113;46.556;24.570;2024-02-15T05:24:17;3.20;;;1.10;;
84031;SDS011;74113;46.556;24.570;2024-02-15T05:26:48;3.90;;;1.30;;
84031;SDS011;74113;46.556;24.570;2024-02-15T05:29:20;2.50;;;1.10;;
84031;SDS011;74113;46.556;24.570;2024-02-15T05:31:51;3.10;;;1.50;;
84031;SDS011;74113;46.556;24.570;2024-02-15T05:34:22;3.30;;;0.70;;
84031;SDS011;74113;46.556;24.570;2024-02-15T05:36:53;2.70;;;0.80;;
84031;SDS011;74113;46.556;24.570;2024-02-15T05:39:23;3.60;;;1.80;;
84031;SDS011;74113;46.556;24.570;2024-02-15T05:41:53;3.30;;;1.30;;
84031;SDS011;74113;46.556;24.570;2024-02-15T05:44:22;2.50;;;1.00;;
84031;SDS011;74113;46.556;24.570;2024-02-15T05:46:53;5.20;;;1.90;;
84031;SDS011;74113;46.556;24.570;2024-02-15T05:49:25;4.10;;;1.20;;
84031;SDS011;74113;46.556;24.570;2024-02-15T05:52:03;6.40;;;2.00;;
84031;SDS011;74113;46.556;24.570;2024-02-15T05:54:32;5.50;;;2.60;;
84031;SDS011;74113;46.556;24.570;2024-02-15T05:57:05;4.90;;;2.20;;
84031;SDS011;74113;46.556;24.570;2024-02-15T05:59:37;4.40;;;2.30;;
84031;SDS011;74113;46.556;24.570;2024-02-15T06:02:07;5.00;;;2.60;;
84031;SDS011;74113;46.556;24.570;2024-02-15T06:04:37;4.10;;;2.20;;
84031;SDS011;74113;46.556;24.570;2024-02-15T06:07:07;3.30;;;1.60;;
84031;SDS011;74113;46.556;24.570;2024-02-15T06:09:39;3.10;;;1.70;;
84031;SDS011;74113;46.556;24.570;2024-02-15T06:12:10;2.70;;;1.20;;
84031;SDS011;74113;46.556;24.570;2024-02-15T06:14:40;3.80;;;1.90;;
84031;SDS011;74113;46.556;24.570;2024-02-15T06:17:14;3.60;;;1.40;;
84031;SDS011;74113;46.556;24.570;2024-02-15T06:19:43;4.40;;;2.30;;
84031;SDS011;74113;46.556;24.570;2024-02-15T06:22:12;4.20;;;2.30;;
84031;SDS011;74113;46.556;24.570;2024-02-15T06:24:42;6.10;;;2.80;;
84031;SDS011;74113;46.556;24.570;2024-02-15T06:27:11;5.60;;;2.00;;
84031;SDS011;74113;46.556;24.570;2024-02-15T06:29:41;7.70;;;3.30;;
84031;SDS011;74113;46.556;24.570;2024-02-15T06:32:28;7.60;;;2.70;;
84031;SDS011;74113;46.556;24.570;2024-02-15T06:35:16;11.60;;;4.70;;
84031;SDS011;74113;46.556;24.570;2024-02-15T06:38:04;12.10;;;5.00;;
84031;SDS011;74113;46.556;24.570;2024-02-15T06:40:51;10.10;;;4.40;;
84031;SDS011;74113;46.556;24.570;2024-02-15T06:43:24;13.30;;;4.10;;
84031;SDS011;74113;46.556;24.570;2024-02-15T06:46:00;13.30;;;4.80;;
84031;SDS011;74113;46.556;24.570;2024-02-15T06:48:30;15.10;;;6.40;;
84031;SDS011;74113;46.556;24.570;2024-02-15T06:51:00;12.50;;;4.90;;
84031;SDS011;74113;46.556;24.570;2024-02-15T06:53:30;11.70;;;5.00;;
84031;SDS011;74113;46.556;24.570;2024-02-15T06:56:00;10.10;;;4.10;;
84031;SDS011;74113;46.556;24.570;2024-02-15T06:58:29;12.30;;;4.40;;
84031;SDS011;74113;46.556;24.570;2024-02-15T07:00:58;9.30;;;3.90;;
84031;SDS011;74113;46.556;24.570;2024-02-15T07:03:30;9.50;;;5.30;;
84031;SDS011;74113;46.556;24.570;2024-02-15T07:06:04;11.00;;;5.40;;
84031;SDS011;74113;46.556;24.570;2024-02-15T07:08:38;9.10;;;3.80;;
84031;SDS011;74113;46.556;24.570;2024-02-15T07:11:36;8.90;;;3.90;;
84031;SDS011;74113;46.556;24.570;2024-02-15T07:14:08;7.70;;;4.20;;
84031;SDS011;74113;46.556;24.570;2024-02-15T07:16:39;9.50;;;4.30;;
84031;SDS011;74113;46.556;24.570;2024-02-15T07:19:09;9.40;;;5.30;;
84031;SDS011;74113;46.556;24.570;2024-02-15T07:21:40;6.30;;;4.30;;
84031;SDS011;74113;46.556;24.570;2024-02-15T07:24:09;6.90;;;3.80;;
84031;SDS011;74113;46.556;24.570;2024-02-15T07:26:39;10.00;;;4.70;;
84031;SDS011;74113;46.556;24.570;2024-02-15T07:29:08;8.30;;;3.70;;
84031;SDS011;74113;46.556;24.570;2024-02-15T07:31:40;9.40;;;4.10;;
84031;SDS011;74113;46.556;24.570;2024-02-15T07:34:10;6.50;;;3.40;;
84031;SDS011;74113;46.556;24.570;2024-02-15T07:36:49;6.10;;;3.10;;
84031;SDS011;74113;46.556;24.570;2024-02-15T07:39:19;4.70;;;2.50;;
84031;SDS011;74113;46.556;24.570;2024-02-15T07:41:55;7.90;;;3.40;;
84031;SDS011;74113;46.556;24.570;2024-02-15T07:44:36;8.50;;;4.70;;
84031;SDS011;74113;46.556;24.570;2024-02-15T07:47:08;11.30;;;5.40;;
84031;SDS011;74113;46.556;24.570;2024-02-15T07:49:41;8.20;;;3.80;;
84031;SDS011;74113;46.556;24.570;2024-02-15T07:52:11;11.00;;;4.70;;
84031;SDS011;74113;46.556;24.570;2024-02-15T07:54:43;6.70;;;3.60;;
84031;SDS011;74113;46.556;24.570;2024-02-15T07:57:22;6.80;;;3.50;;
84031;SDS011;74113;46.556;24.570;2024-02-15T07:59:53;8.20;;;4.50;;
84031;SDS011;74113;46.556;24.570;2024-02-15T08:02:45;5.50;;;2.90;;
84031;SDS011;74113;46.556;24.570;2024-02-15T08:05:29;9.20;;;4.60;;
84031;SDS011;74113;46.556;24.570;2024-02-15T08:07:59;5.90;;;2.40;;
84031;SDS011;74113;46.556;24.570;2024-02-15T08:10:29;6.90;;;2.90;;
84031;SDS011;74113;46.556;24.570;2024-02-15T08:13:03;8.00;;;5.00;;
84031;SDS011;74113;46.556;24.570;2024-02-15T08:15:31;5.80;;;3.10;;
84031;SDS011;74113;46.556;24.570;2024-02-15T08:18:03;5.60;;;2.50;;
84031;SDS011;74113;46.556;24.570;2024-02-15T08:20:35;4.80;;;1.60;;
84031;SDS011;74113;46.556;24.570;2024-02-15T08:23:06;3.90;;;1.70;;
84031;SDS011;74113;46.556;24.570;2024-02-15T08:25:39;5.70;;;2.30;;
84031;SDS011;74113;46.556;24.570;2024-02-15T08:28:11;5.00;;;2.20;;
84031;SDS011;74113;46.556;24.570;2024-02-15T08:30:41;3.60;;;2.00;;
84031;SDS011;74113;46.556;24.570;2024-02-15T08:33:10;4.50;;;2.00;;
84031;SDS011;74113;46.556;24.570;2024-02-15T08:35:39;4.20;;;1.80;;
84031;SDS011;74113;46.556;24.570;2024-02-15T08:38:10;6.40;;;3.60;;
84031;SDS011;74113;46.556;24.570;2024-02-15T08:40:39;7.70;;;3.20;;
84031;SDS011;74113;46.556;24.570;2024-02-15T08:43:10;4.90;;;2.00;;
84031;SDS011;74113;46.556;24.570;2024-02-15T08:45:41;5.10;;;1.50;;
84031;SDS011;74113;46.556;24.570;2024-02-15T08:48:12;4.80;;;2.00;;
84031;SDS011;74113;46.556;24.570;2024-02-15T08:50:42;5.70;;;1.70;;
84031;SDS011;74113;46.556;24.570;2024-02-15T08:53:14;3.00;;;1.10;;
84031;SDS011;74113;46.556;24.570;2024-02-15T08:55:43;5.30;;;3.10;;
84031;SDS011;74113;46.556;24.570;2024-02-15T08:58:12;6.70;;;2.70;;
84031;SDS011;74113;46.556;24.570;2024-02-15T09:00:42;5.40;;;2.20;;
84031;SDS011;74113;46.556;24.570;2024-02-15T09:03:15;6.90;;;3.10;;
84031;SDS011;74113;46.556;24.570;2024-02-15T09:05:45;4.60;;;1.70;;
84031;SDS011;74113;46.556;24.570;2024-02-15T09:08:15;4.30;;;2.40;;
84031;SDS011;74113;46.556;24.570;2024-02-15T09:10:44;5.90;;;2.60;;
84031;SDS011;74113;46.556;24.570;2024-02-15T09:13:13;5.00;;;2.40;;
84031;SDS011;74113;46.556;24.570;2024-02-15T09:15:44;4.90;;;2.40;;
84031;SDS011;74113;46.556;24.570;2024-02-15T09:18:15;9.80;;;4.60;;
84031;SDS011;74113;46.556;24.570;2024-02-15T09:20:46;5.50;;;1.90;;
84031;SDS011;74113;46.556;24.570;2024-02-15T09:23:18;5.10;;;1.90;;
84031;SDS011;74113;46.556;24.570;2024-02-15T09:25:46;3.90;;;1.60;;
84031;SDS011;74113;46.556;24.570;2024-02-15T09:28:20;6.60;;;3.10;;
84031;SDS011;74113;46.556;24.570;2024-02-15T09:30:52;4.40;;;2.50;;
84031;SDS011;74113;46.556;24.570;2024-02-15T09:33:21;14.00;;;3.20;;
84031;SDS011;74113;46.556;24.570;2024-02-15T09:35:50;6.40;;;2.20;;
84031;SDS011;74113;46.556;24.570;2024-02-15T09:38:19;4.00;;;2.00;;
84031;SDS011;74113;46.556;24.570;2024-02-15T09:40:49;5.70;;;1.90;;
84031;SDS011;74113;46.556;24.570;2024-02-15T09:43:18;4.10;;;3.00;;
84031;SDS011;74113;46.556;24.570;2024-02-15T09:45:47;4.30;;;2.60;;
84031;SDS011;74113;46.556;24.570;2024-02-15T09:48:17;7.70;;;4.20;;
84031;SDS011;74113;46.556;24.570;2024-02-15T09:50:46;5.30;;;2.30;;
84031;SDS011;74113;46.556;24.570;2024-02-15T09:53:21;5.60;;;4.30;;
84031;SDS011;74113;46.556;24.570;2024-02-15T09:55:54;6.50;;;2.90;;
84031;SDS011;74113;46.556;24.570;2024-02-15T09:58:23;5.30;;;3.10;;
84031;SDS011;74113;46.556;24.570;2024-02-15T10:00:55;6.90;;;2.80;;
84031;SDS011;74113;46.556;24.570;2024-02-15T10:03:26;6.50;;;3.40;;
84031;SDS011;74113;46.556;24.570;2024-02-15T10:06:01;4.60;;;2.10;;
84031;SDS011;74113;46.556;24.570;2024-02-15T10:08:30;5.00;;;1.70;;
84031;SDS011;74113;46.556;24.570;2024-02-15T10:11:07;6.70;;;2.60;;
84031;SDS011;74113;46.556;24.570;2024-02-15T10:13:40;5.10;;;2.10;;
84031;SDS011;74113;46.556;24.570;2024-02-15T10:16:19;4.70;;;2.00;;
84031;SDS011;74113;46.556;24.570;2024-02-15T10:18:53;7.00;;;2.30;;
84031;SDS011;74113;46.556;24.570;2024-02-15T10:21:40;3.30;;;1.60;;
84031;SDS011;74113;46.556;24.570;2024-02-15T10:24:13;4.10;;;1.20;;
84031;SDS011;74113;46.556;24.570;2024-02-15T10:26:44;3.20;;;1.10;;
84031;SDS011;74113;46.556;24.570;2024-02-15T10:29:18;3.60;;;2.60;;
84031;SDS011;74113;46.556;24.570;2024-02-15T10:31:54;2.10;;;0.60;;
84031;SDS011;74113;46.556;24.570;2024-02-15T10:34:25;1.70;;;0.60;;
84031;SDS011;74113;46.556;24.570;2024-02-15T10:37:13;2.10;;;0.70;;
84031;SDS011;74113;46.556;24.570;2024-02-15T10:39:45;2.30;;;1.00;;
84031;SDS011;74113;46.556;24.570;2024-02-15T10:42:15;3.30;;;1.70;;
84031;SDS011;74113;46.556;24.570;2024-02-15T10:44:47;2.50;;;0.90;;
84031;SDS011;74113;46.556;24.570;2024-02-15T10:47:20;2.60;;;0.50;;
84031;SDS011;74113;46.556;24.570;2024-02-15T10:49:51;2.70;;;1.10;;
84031;SDS011;74113;46.556;24.570;2024-02-15T10:52:21;3.10;;;1.90;;
84031;SDS011;74113;46.556;24.570;2024-02-15T10:54:56;2.80;;;0.80;;
84031;SDS011;74113;46.556;24.570;2024-02-15T10:57:33;2.30;;;1.50;;
84031;SDS011;74113;46.556;24.570;2024-02-15T11:00:07;2.30;;;0.90;;
84031;SDS011;74113;46.556;24.570;2024-02-15T11:02:46;6.70;;;1.50;;
84031;SDS011;74113;46.556;24.570;2024-02-15T11:05:24;3.30;;;1.50;;
84031;SDS011;74113;46.556;24.570;2024-02-15T11:07:55;2.70;;;1.10;;
84031;SDS011;74113;46.556;24.570;2024-02-15T11:10:25;4.40;;;2.10;;
84031;SDS011;74113;46.556;24.570;2024-02-15T11:12:55;2.90;;;1.50;;
84031;SDS011;74113;46.556;24.570;2024-02-15T11:21:18;2.50;;;1.00;;
84031;SDS011;74113;46.556;24.570;2024-02-15T11:24:25;2.80;;;1.50;;
84031;SDS011;74113;46.556;24.570;2024-02-15T11:26:59;2.80;;;1.00;;
84031;SDS011;74113;46.556;24.570;2024-02-15T11:32:34;1.80;;;0.60;;
84031;SDS011;74113;46.556;24.570;2024-02-15T11:35:20;2.90;;;1.20;;
84031;SDS011;74113;46.556;24.570;2024-02-15T11:37:54;3.80;;;1.60;;
84031;SDS011;74113;46.556;24.570;2024-02-15T11:46:19;4.30;;;1.60;;
84031;SDS011;74113;46.556;24.570;2024-02-15T11:48:48;4.60;;;1.10;;
84031;SDS011;74113;46.556;24.570;2024-02-15T11:51:25;2.70;;;1.00;;
84031;SDS011;74113;46.556;24.570;2024-02-15T11:54:03;2.00;;;0.80;;
84031;SDS011;74113;46.556;24.570;2024-02-15T11:59:44;3.90;;;1.20;;
84031;SDS011;74113;46.556;24.570;2024-02-15T12:02:45;8.60;;;1.20;;
84031;SDS011;74113;46.556;24.570;2024-02-15T12:05:48;2.30;;;1.10;;
84031;SDS011;74113;46.556;24.570;2024-02-15T12:08:45;3.00;;;1.00;;
84031;SDS011;74113;46.556;24.570;2024-02-15T12:11:40;3.10;;;1.40;;
84031;SDS011;74113;46.556;24.570;2024-02-15T12:14:28;3.00;;;1.50;;
84031;SDS011;74113;46.556;24.570;2024-02-15T12:17:16;2.70;;;1.20;;
84031;SDS011;74113;46.556;24.570;2024-02-15T12:20:06;4.80;;;1.40;;
84031;SDS011;74113;46.556;24.570;2024-02-15T12:22:43;3.00;;;1.80;;
84031;SDS011;74113;46.556;24.570;2024-02-15T12:25:17;3.70;;;1.50;;
84031;SDS011;74113;46.556;24.570;2024-02-15T12:27:54;2.10;;;1.30;;
84031;SDS011;74113;46.556;24.570;2024-02-15T12:30:25;3.10;;;2.90;;
84031;SDS011;74113;46.556;24.570;2024-02-15T12:33:12;3.00;;;1.30;;
84031;SDS011;74113;46.556;24.570;2024-02-15T12:35:50;2.60;;;0.90;;
84031;SDS011;74113;46.556;24.570;2024-02-15T12:38:19;1.70;;;0.70;;
84031;SDS011;74113;46.556;24.570;2024-02-15T12:40:51;1.90;;;1.00;;
84031;SDS011;74113;46.556;24.570;2024-02-15T12:43:20;2.30;;;0.90;;
84031;SDS011;74113;46.556;24.570;2024-02-15T12:45:49;2.20;;;1.60;;
84031;SDS011;74113;46.556;24.570;2024-02-15T12:48:19;2.20;;;1.10;;
84031;SDS011;74113;46.556;24.570;2024-02-15T12:50:51;1.90;;;1.00;;
84031;SDS011;74113;46.556;24.570;2024-02-15T12:53:21;2.90;;;0.80;;
84031;SDS011;74113;46.556;24.570;2024-02-15T12:55:53;2.00;;;1.30;;
84031;SDS011;74113;46.556;24.570;2024-02-15T12:58:24;2.90;;;1.20;;
84031;SDS011;74113;46.556;24.570;2024-02-15T13:00:55;1.80;;;0.80;;
84031;SDS011;74113;46.556;24.570;2024-02-15T13:03:27;2.30;;;1.00;;
84031;SDS011;74113;46.556;24.570;2024-02-15T13:05:58;2.70;;;1.20;;
84031;SDS011;74113;46.556;24.570;2024-02-15T13:11:02;1.50;;;1.00;;
84031;SDS011;74113;46.556;24.570;2024-02-15T13:13:32;2.10;;;0.60;;
84031;SDS011;74113;46.556;24.570;2024-02-15T13:16:03;1.30;;;0.60;;
84031;SDS011;74113;46.556;24.570;2024-02-15T13:18:35;1.80;;;1.50;;
84031;SDS011;74113;46.556;24.570;2024-02-15T13:21:05;2.00;;;1.00;;
84031;SDS011;74113;46.556;24.570;2024-02-15T13:23:37;1.70;;;0.70;;
84031;SDS011;74113;46.556;24.570;2024-02-15T13:26:07;2.70;;;1.20;;
84031;SDS011;74113;46.556;24.570;2024-02-15T13:29:25;1.40;;;0.70;;
84031;SDS011;74113;46.556;24.570;2024-02-15T13:31:54;2.00;;;1.20;;
84031;SDS011;74113;46.556;24.570;2024-02-15T13:34:23;1.50;;;0.50;;
84031;SDS011;74113;46.556;24.570;2024-02-15T13:36:53;3.20;;;1.40;;
84031;SDS011;74113;46.556;24.570;2024-02-15T13:39:23;2.50;;;1.20;;
84031;SDS011;74113;46.556;24.570;2024-02-15T13:41:53;2.30;;;0.70;;
84031;SDS011;74113;46.556;24.570;2024-02-15T13:44:22;2.60;;;1.00;;
84031;SDS011;74113;46.556;24.570;2024-02-15T13:46:52;2.60;;;1.00;;
84031;SDS011;74113;46.556;24.570;2024-02-15T13:49:24;3.40;;;1.50;;
84031;SDS011;74113;46.556;24.570;2024-02-15T13:52:02;4.40;;;2.70;;
84031;SDS011;74113;46.556;24.570;2024-02-15T13:54:37;3.90;;;1.30;;
84031;SDS011;74113;46.556;24.570;2024-02-15T13:57:07;2.50;;;1.10;;
84031;SDS011;74113;46.556;24.570;2024-02-15T13:59:36;1.90;;;0.60;;
84031;SDS011;74113;46.556;24.570;2024-02-15T14:02:06;2.10;;;1.10;;
84031;SDS011;74113;46.556;24.570;2024-02-15T14:04:36;2.30;;;1.50;;
84031;SDS011;74113;46.556;24.570;2024-02-15T14:07:07;1.20;;;0.50;;
84031;SDS011;74113;46.556;24.570;2024-02-15T14:09:36;2.10;;;0.80;;
84031;SDS011;74113;46.556;24.570;2024-02-15T14:12:07;1.80;;;1.00;;
84031;SDS011;74113;46.556;24.570;2024-02-15T14:14:36;2.20;;;0.90;;
84031;SDS011;74113;46.556;24.570;2024-02-15T14:17:08;1.30;;;0.50;;
84031;SDS011;74113;46.556;24.570;2024-02-15T14:19:37;1.40;;;0.40;;
84031;SDS011;74113;46.556;24.570;2024-02-15T14:22:07;1.40;;;0.60;;
84031;SDS011;74113;46.556;24.570;2024-02-15T14:24:37;1.80;;;0.40;;
84031;SDS011;74113;46.556;24.570;2024-02-15T14:27:07;1.50;;;0.50;;
84031;SDS011;74113;46.556;24.570;2024-02-15T14:29:37;1.90;;;0.60;;
84031;SDS011;74113;46.556;24.570;2024-02-15T14:32:13;0.80;;;0.30;;
84031;SDS011;74113;46.556;24.570;2024-02-15T14:35:01;1.70;;;1.50;;
84031;SDS011;74113;46.556;24.570;2024-02-15T14:37:31;1.70;;;0.60;;
84031;SDS011;74113;46.556;24.570;2024-02-15T14:40:01;2.30;;;1.20;;
84031;SDS011;74113;46.556;24.570;2024-02-15T14:42:33;1.00;;;0.50;;
84031;SDS011;74113;46.556;24.570;2024-02-15T14:45:04;1.10;;;0.30;;
84031;SDS011;74113;46.556;24.570;2024-02-15T14:47:34;1.20;;;0.30;;
84031;SDS011;74113;46.556;24.570;2024-02-15T14:50:04;1.80;;;0.50;;
84031;SDS011;74113;46.556;24.570;2024-02-15T14:52:39;1.40;;;0.60;;
84031;SDS011;74113;46.556;24.570;2024-02-15T14:55:09;2.40;;;1.70;;
84031;SDS011;74113;46.556;24.570;2024-02-15T14:57:39;1.60;;;1.00;;
84031;SDS011;74113;46.556;24.570;2024-02-15T15:00:09;2.80;;;1.70;;
84031;SDS011;74113;46.556;24.570;2024-02-15T15:02:42;2.00;;;0.80;;
84031;SDS011;74113;46.556;24.570;2024-02-15T15:05:16;2.20;;;0.90;;
84031;SDS011;74113;46.556;24.570;2024-02-15T15:08:03;1.90;;;0.80;;
84031;SDS011;74113;46.556;24.570;2024-02-15T15:10:51;2.10;;;0.90;;
84031;SDS011;74113;46.556;24.570;2024-02-15T15:13:39;2.00;;;0.60;;
84031;SDS011;74113;46.556;24.570;2024-02-15T15:16:09;0.90;;;0.30;;
84031;SDS011;74113;46.556;24.570;2024-02-15T15:18:42;1.30;;;0.40;;
84031;SDS011;74113;46.556;24.570;2024-02-15T15:21:18;1.00;;;0.40;;
84031;SDS011;74113;46.556;24.570;2024-02-15T15:23:47;1.40;;;0.70;;
84031;SDS011;74113;46.556;24.570;2024-02-15T15:26:20;1.50;;;1.00;;
84031;SDS011;74113;46.556;24.570;2024-02-15T15:28:50;2.90;;;0.40;;